South Easton, MA (02375)

1:03 AM EST on December 03, 2016 (GMT -0500)
North Easton Village | | Change Station

Elev 148 ft 42.06 °N, 71.10 °W | Updated 4 seconds ago

Scattered Clouds
Scattered Clouds
40.4 °F
Feels Like 40 °F
N
0.0
Wind Variable Wind from West
Gusts 0.0 mph

Today
High -- | Low -- °F
--% Chance of Precip.
Yesterday
High -- | Low -- °F
Precip. -- in
Pressure 29.73 in
Visibility 10.0 miles
Clouds Scattered Clouds 11000 ft
Windchill 40 °F
Dew Point 31 °F
Humidity 69%
Rainfall 0.00 in
Snow Depth Not available.
6:55 AM 4:13 PM
Waxing Crescent, 12% visible
METAR KOWD 030453Z AUTO 27011G17KT 10SM SCT110 06/M02 A2973 RMK AO2 PK WND 32026/0434 SLP068 T00561017 401110011
Pressure 29.73 in
Visibility 10.0 miles
Clouds Scattered Clouds 11000 ft
Windchill 40 °F
Dew Point 31 °F
Humidity 69%
Rainfall 0.00 in
Snow Depth Not available.
6:55 AM 4:13 PM
Waxing Crescent, 12% visible
METAR KOWD 030453Z AUTO 27011G17KT 10SM SCT110 06/M02 A2973 RMK AO2 PK WND 32026/0434 SLP068 T00561017 401110011

10-Day Weather Forecast

Almanac

Astronomy

Dec. 03, 2016 Rise Set
Actual Time
Civil Twilight
Nautical Twilight
Astronomical Twilight
Moon
Length of Visible Light
Length of Day
Tomorrow will be .
, % of the Moon is Illuminated

Today's Extremes

State Highs State Lows

Community

WunderPhotos

Upload Photos

1,955,432 photos uploaded!

WunderBlog® & News

Nearby

Air Quality

  Air Quality AQ Index Pollutant
Not available.

Snow Depth

Station Depth Elevation

Earthquake Activity

City Distance Mag. Time & Date
Minimum magnitude displayed is 2.5.

Coastal Water Temperatures

Place Temperature

Stations

Nearby Weather Stations

Station Location Temp. Windchill Dew Point Humidity Wind Precip. Elev Updated Type
                   

Watches & Warnings

There are currently no watches in effect.